sensor_id;sensor_type;location;lat;lon;timestamp;P1;durP1;ratioP1;P2;durP2;ratioP2
73575;SDS011;61859;49.204;8.140;2022-11-02T00:02:16;4.67;;;1.57;;
73575;SDS011;61859;49.204;8.140;2022-11-02T00:04:41;1.47;;;1.10;;
73575;SDS011;61859;49.204;8.140;2022-11-02T00:07:07;1.17;;;1.07;;
73575;SDS011;61859;49.204;8.140;2022-11-02T00:09:32;3.67;;;1.60;;
73575;SDS011;61859;49.204;8.140;2022-11-02T00:11:58;2.53;;;1.50;;
73575;SDS011;61859;49.204;8.140;2022-11-02T00:14:23;1.70;;;1.33;;
73575;SDS011;61859;49.204;8.140;2022-11-02T00:16:49;3.70;;;1.00;;
73575;SDS011;61859;49.204;8.140;2022-11-02T00:19:15;2.30;;;1.10;;
73575;SDS011;61859;49.204;8.140;2022-11-02T00:21:41;3.43;;;1.00;;
73575;SDS011;61859;49.204;8.140;2022-11-02T00:24:07;2.80;;;1.27;;
73575;SDS011;61859;49.204;8.140;2022-11-02T00:26:34;2.40;;;1.60;;
73575;SDS011;61859;49.204;8.140;2022-11-02T00:29:01;1.00;;;0.90;;
73575;SDS011;61859;49.204;8.140;2022-11-02T00:31:28;2.03;;;1.47;;
73575;SDS011;61859;49.204;8.140;2022-11-02T00:33:53;3.10;;;1.40;;
73575;SDS011;61859;49.204;8.140;2022-11-02T00:36:19;4.27;;;1.37;;
73575;SDS011;61859;49.204;8.140;2022-11-02T00:38:45;1.43;;;1.10;;
73575;SDS011;61859;49.204;8.140;2022-11-02T00:41:10;4.13;;;0.93;;
73575;SDS011;61859;49.204;8.140;2022-11-02T00:43:36;1.90;;;0.90;;
73575;SDS011;61859;49.204;8.140;2022-11-02T00:46:02;2.43;;;1.10;;
73575;SDS011;61859;49.204;8.140;2022-11-02T00:48:28;5.70;;;1.17;;
73575;SDS011;61859;49.204;8.140;2022-11-02T00:50:53;1.67;;;0.90;;
73575;SDS011;61859;49.204;8.140;2022-11-02T00:53:19;4.30;;;1.50;;
73575;SDS011;61859;49.204;8.140;2022-11-02T00:55:44;6.03;;;1.10;;
73575;SDS011;61859;49.204;8.140;2022-11-02T00:58:11;1.10;;;0.90;;
73575;SDS011;61859;49.204;8.140;2022-11-02T01:00:37;2.67;;;1.00;;
73575;SDS011;61859;49.204;8.140;2022-11-02T01:03:02;1.70;;;1.03;;
73575;SDS011;61859;49.204;8.140;2022-11-02T01:05:28;1.00;;;0.80;;
73575;SDS011;61859;49.204;8.140;2022-11-02T01:07:54;3.20;;;1.10;;
73575;SDS011;61859;49.204;8.140;2022-11-02T01:10:21;4.93;;;1.17;;
73575;SDS011;61859;49.204;8.140;2022-11-02T01:12:47;5.40;;;0.93;;
73575;SDS011;61859;49.204;8.140;2022-11-02T01:15:13;3.27;;;1.20;;
73575;SDS011;61859;49.204;8.140;2022-11-02T01:17:38;2.90;;;1.27;;
73575;SDS011;61859;49.204;8.140;2022-11-02T01:20:04;2.77;;;1.20;;
73575;SDS011;61859;49.204;8.140;2022-11-02T01:22:30;3.03;;;1.10;;
73575;SDS011;61859;49.204;8.140;2022-11-02T01:24:56;2.27;;;1.20;;
73575;SDS011;61859;49.204;8.140;2022-11-02T01:27:21;5.10;;;1.37;;
73575;SDS011;61859;49.204;8.140;2022-11-02T01:29:47;2.40;;;1.10;;
73575;SDS011;61859;49.204;8.140;2022-11-02T01:32:13;2.60;;;1.00;;
73575;SDS011;61859;49.204;8.140;2022-11-02T01:34:38;2.00;;;1.53;;
73575;SDS011;61859;49.204;8.140;2022-11-02T01:37:04;3.13;;;1.47;;
73575;SDS011;61859;49.204;8.140;2022-11-02T01:39:30;5.53;;;1.73;;
73575;SDS011;61859;49.204;8.140;2022-11-02T01:41:55;1.20;;;1.10;;
73575;SDS011;61859;49.204;8.140;2022-11-02T01:44:29;2.40;;;0.90;;
73575;SDS011;61859;49.204;8.140;2022-11-02T01:49:41;4.37;;;1.10;;
73575;SDS011;61859;49.204;8.140;2022-11-02T01:52:10;2.50;;;1.60;;
73575;SDS011;61859;49.204;8.140;2022-11-02T01:54:40;3.27;;;0.90;;
73575;SDS011;61859;49.204;8.140;2022-11-02T01:57:09;1.57;;;1.10;;
73575;SDS011;61859;49.204;8.140;2022-11-02T01:59:41;4.20;;;1.07;;
73575;SDS011;61859;49.204;8.140;2022-11-02T02:02:22;4.23;;;1.00;;
73575;SDS011;61859;49.204;8.140;2022-11-02T02:04:53;3.43;;;0.87;;
73575;SDS011;61859;49.204;8.140;2022-11-02T02:07:25;1.57;;;1.10;;
73575;SDS011;61859;49.204;8.140;2022-11-02T02:09:51;2.60;;;1.27;;
73575;SDS011;61859;49.204;8.140;2022-11-02T02:12:18;2.07;;;1.10;;
73575;SDS011;61859;49.204;8.140;2022-11-02T02:14:44;1.97;;;0.97;;
73575;SDS011;61859;49.204;8.140;2022-11-02T02:30:57;1.40;;;1.17;;
73575;SDS011;61859;49.204;8.140;2022-11-02T02:33:34;3.03;;;1.20;;
73575;SDS011;61859;49.204;8.140;2022-11-02T02:36:06;1.83;;;0.97;;
73575;SDS011;61859;49.204;8.140;2022-11-02T02:38:44;1.80;;;1.13;;
73575;SDS011;61859;49.204;8.140;2022-11-02T02:41:43;2.43;;;0.93;;
73575;SDS011;61859;49.204;8.140;2022-11-02T02:44:13;1.13;;;1.00;;
73575;SDS011;61859;49.204;8.140;2022-11-02T02:46:47;1.77;;;1.37;;
73575;SDS011;61859;49.204;8.140;2022-11-02T02:49:23;2.27;;;1.33;;
73575;SDS011;61859;49.204;8.140;2022-11-02T02:51:54;2.47;;;0.77;;
73575;SDS011;61859;49.204;8.140;2022-11-02T02:54:21;2.93;;;1.30;;
73575;SDS011;61859;49.204;8.140;2022-11-02T02:56:54;4.40;;;1.50;;
73575;SDS011;61859;49.204;8.140;2022-11-02T03:01:55;3.47;;;1.13;;
73575;SDS011;61859;49.204;8.140;2022-11-02T03:04:22;5.40;;;1.20;;
73575;SDS011;61859;49.204;8.140;2022-11-02T03:06:50;2.50;;;0.90;;
73575;SDS011;61859;49.204;8.140;2022-11-02T03:17:32;2.73;;;1.10;;
73575;SDS011;61859;49.204;8.140;2022-11-02T03:20:25;4.60;;;1.40;;
73575;SDS011;61859;49.204;8.140;2022-11-02T03:28:12;1.53;;;1.37;;
73575;SDS011;61859;49.204;8.140;2022-11-02T03:30:58;2.77;;;0.87;;
73575;SDS011;61859;49.204;8.140;2022-11-02T03:33:33;4.13;;;0.87;;
73575;SDS011;61859;49.204;8.140;2022-11-02T03:38:37;2.57;;;1.60;;
73575;SDS011;61859;49.204;8.140;2022-11-02T03:41:09;3.93;;;1.20;;
73575;SDS011;61859;49.204;8.140;2022-11-02T03:43:35;4.60;;;1.20;;
73575;SDS011;61859;49.204;8.140;2022-11-02T03:46:05;3.20;;;1.23;;
73575;SDS011;61859;49.204;8.140;2022-11-02T03:48:35;3.50;;;1.37;;
73575;SDS011;61859;49.204;8.140;2022-11-02T03:51:06;2.03;;;1.10;;
73575;SDS011;61859;49.204;8.140;2022-11-02T03:53:47;1.30;;;0.67;;
73575;SDS011;61859;49.204;8.140;2022-11-02T03:56:24;2.67;;;1.10;;
73575;SDS011;61859;49.204;8.140;2022-11-02T03:58:55;2.90;;;1.03;;
73575;SDS011;61859;49.204;8.140;2022-11-02T04:01:21;3.10;;;1.13;;
73575;SDS011;61859;49.204;8.140;2022-11-02T04:03:46;2.27;;;1.37;;
73575;SDS011;61859;49.204;8.140;2022-11-02T04:06:12;2.37;;;1.30;;
73575;SDS011;61859;49.204;8.140;2022-11-02T04:08:43;4.00;;;0.93;;
73575;SDS011;61859;49.204;8.140;2022-11-02T04:11:10;7.07;;;1.57;;
73575;SDS011;61859;49.204;8.140;2022-11-02T04:13:54;2.67;;;1.10;;
73575;SDS011;61859;49.204;8.140;2022-11-02T04:16:38;0.73;;;0.70;;
73575;SDS011;61859;49.204;8.140;2022-11-02T04:19:04;2.43;;;0.90;;
73575;SDS011;61859;49.204;8.140;2022-11-02T04:21:48;8.63;;;1.20;;
73575;SDS011;61859;49.204;8.140;2022-11-02T04:24:33;4.10;;;1.10;;
73575;SDS011;61859;49.204;8.140;2022-11-02T04:27:17;6.40;;;1.40;;
73575;SDS011;61859;49.204;8.140;2022-11-02T04:29:42;5.17;;;1.67;;
73575;SDS011;61859;49.204;8.140;2022-11-02T04:32:08;5.27;;;1.47;;
73575;SDS011;61859;49.204;8.140;2022-11-02T04:34:34;3.37;;;1.03;;
73575;SDS011;61859;49.204;8.140;2022-11-02T04:37:00;4.77;;;1.30;;
73575;SDS011;61859;49.204;8.140;2022-11-02T04:39:25;3.60;;;1.53;;
73575;SDS011;61859;49.204;8.140;2022-11-02T04:41:51;1.87;;;0.70;;
73575;SDS011;61859;49.204;8.140;2022-11-02T04:44:16;4.63;;;1.10;;
73575;SDS011;61859;49.204;8.140;2022-11-02T04:46:42;1.57;;;0.83;;
73575;SDS011;61859;49.204;8.140;2022-11-02T04:49:09;4.07;;;0.90;;
73575;SDS011;61859;49.204;8.140;2022-11-02T04:51:36;3.80;;;1.57;;
73575;SDS011;61859;49.204;8.140;2022-11-02T04:54:04;2.60;;;1.20;;
73575;SDS011;61859;49.204;8.140;2022-11-02T04:56:30;1.83;;;1.00;;
73575;SDS011;61859;49.204;8.140;2022-11-02T04:58:56;4.10;;;1.10;;
73575;SDS011;61859;49.204;8.140;2022-11-02T05:01:24;1.57;;;0.90;;
73575;SDS011;61859;49.204;8.140;2022-11-02T05:03:52;4.60;;;1.43;;
73575;SDS011;61859;49.204;8.140;2022-11-02T05:06:18;2.90;;;1.20;;
73575;SDS011;61859;49.204;8.140;2022-11-02T05:08:46;2.50;;;1.10;;
73575;SDS011;61859;49.204;8.140;2022-11-02T05:11:12;4.10;;;1.90;;
73575;SDS011;61859;49.204;8.140;2022-11-02T05:13:38;3.90;;;1.30;;
73575;SDS011;61859;49.204;8.140;2022-11-02T05:16:05;2.93;;;1.13;;
73575;SDS011;61859;49.204;8.140;2022-11-02T05:18:31;2.07;;;1.20;;
73575;SDS011;61859;49.204;8.140;2022-11-02T05:20:58;2.70;;;1.00;;
73575;SDS011;61859;49.204;8.140;2022-11-02T05:23:25;7.30;;;1.30;;
73575;SDS011;61859;49.204;8.140;2022-11-02T05:25:55;3.77;;;1.37;;
73575;SDS011;61859;49.204;8.140;2022-11-02T05:28:21;2.33;;;1.50;;
73575;SDS011;61859;49.204;8.140;2022-11-02T05:30:47;3.50;;;1.20;;
73575;SDS011;61859;49.204;8.140;2022-11-02T05:33:13;4.43;;;1.03;;
73575;SDS011;61859;49.204;8.140;2022-11-02T05:35:39;2.00;;;1.13;;
73575;SDS011;61859;49.204;8.140;2022-11-02T05:38:05;5.13;;;1.37;;
73575;SDS011;61859;49.204;8.140;2022-11-02T05:40:30;1.83;;;0.80;;
73575;SDS011;61859;49.204;8.140;2022-11-02T05:42:58;2.93;;;1.27;;
73575;SDS011;61859;49.204;8.140;2022-11-02T05:45:24;1.87;;;1.13;;
73575;SDS011;61859;49.204;8.140;2022-11-02T05:47:50;1.10;;;0.90;;
73575;SDS011;61859;49.204;8.140;2022-11-02T05:50:16;1.37;;;1.17;;
73575;SDS011;61859;49.204;8.140;2022-11-02T05:52:41;3.67;;;1.53;;
73575;SDS011;61859;49.204;8.140;2022-11-02T05:55:07;2.33;;;1.47;;
73575;SDS011;61859;49.204;8.140;2022-11-02T05:57:33;3.43;;;1.40;;
73575;SDS011;61859;49.204;8.140;2022-11-02T05:59:58;4.30;;;1.40;;
73575;SDS011;61859;49.204;8.140;2022-11-02T06:02:24;3.57;;;1.40;;
73575;SDS011;61859;49.204;8.140;2022-11-02T06:04:50;2.33;;;0.93;;
73575;SDS011;61859;49.204;8.140;2022-11-02T06:07:15;1.80;;;0.73;;
73575;SDS011;61859;49.204;8.140;2022-11-02T06:09:41;2.73;;;0.90;;
73575;SDS011;61859;49.204;8.140;2022-11-02T06:12:07;2.27;;;0.90;;
73575;SDS011;61859;49.204;8.140;2022-11-02T06:14:32;3.07;;;0.87;;
73575;SDS011;61859;49.204;8.140;2022-11-02T06:16:58;3.37;;;1.20;;
73575;SDS011;61859;49.204;8.140;2022-11-02T06:19:23;4.17;;;1.53;;
73575;SDS011;61859;49.204;8.140;2022-11-02T06:21:49;2.67;;;0.93;;
73575;SDS011;61859;49.204;8.140;2022-11-02T06:24:14;3.70;;;1.57;;
73575;SDS011;61859;49.204;8.140;2022-11-02T06:26:40;4.27;;;0.97;;
73575;SDS011;61859;49.204;8.140;2022-11-02T06:29:05;2.70;;;0.73;;
73575;SDS011;61859;49.204;8.140;2022-11-02T06:31:31;3.67;;;1.40;;
73575;SDS011;61859;49.204;8.140;2022-11-02T06:33:56;5.23;;;1.03;;
73575;SDS011;61859;49.204;8.140;2022-11-02T06:36:22;5.27;;;1.40;;
73575;SDS011;61859;49.204;8.140;2022-11-02T06:38:47;3.77;;;0.90;;
73575;SDS011;61859;49.204;8.140;2022-11-02T06:41:13;4.20;;;1.37;;
73575;SDS011;61859;49.204;8.140;2022-11-02T06:43:39;3.43;;;1.17;;
73575;SDS011;61859;49.204;8.140;2022-11-02T06:46:05;2.47;;;1.00;;
73575;SDS011;61859;49.204;8.140;2022-11-02T06:48:30;4.90;;;1.07;;
73575;SDS011;61859;49.204;8.140;2022-11-02T06:50:56;4.13;;;1.23;;
73575;SDS011;61859;49.204;8.140;2022-11-02T06:53:22;3.23;;;1.40;;
73575;SDS011;61859;49.204;8.140;2022-11-02T06:55:52;3.80;;;1.10;;
73575;SDS011;61859;49.204;8.140;2022-11-02T06:58:18;4.03;;;1.00;;
73575;SDS011;61859;49.204;8.140;2022-11-02T07:00:44;3.47;;;1.23;;
73575;SDS011;61859;49.204;8.140;2022-11-02T07:03:09;4.83;;;1.47;;
73575;SDS011;61859;49.204;8.140;2022-11-02T07:05:35;2.43;;;1.23;;
73575;SDS011;61859;49.204;8.140;2022-11-02T07:08:01;7.97;;;1.73;;
73575;SDS011;61859;49.204;8.140;2022-11-02T07:10:27;3.13;;;0.77;;
73575;SDS011;61859;49.204;8.140;2022-11-02T07:12:53;1.50;;;1.03;;
73575;SDS011;61859;49.204;8.140;2022-11-02T07:15:20;3.73;;;1.43;;
73575;SDS011;61859;49.204;8.140;2022-11-02T07:17:47;3.77;;;1.20;;
73575;SDS011;61859;49.204;8.140;2022-11-02T07:20:12;4.33;;;1.20;;
73575;SDS011;61859;49.204;8.140;2022-11-02T07:22:38;7.57;;;1.20;;
73575;SDS011;61859;49.204;8.140;2022-11-02T07:25:04;2.60;;;1.17;;
73575;SDS011;61859;49.204;8.140;2022-11-02T07:27:30;4.60;;;1.10;;
73575;SDS011;61859;49.204;8.140;2022-11-02T07:29:56;3.13;;;0.90;;
73575;SDS011;61859;49.204;8.140;2022-11-02T07:32:22;4.90;;;1.60;;
73575;SDS011;61859;49.204;8.140;2022-11-02T07:34:48;4.47;;;1.40;;
73575;SDS011;61859;49.204;8.140;2022-11-02T07:37:13;3.17;;;0.87;;
73575;SDS011;61859;49.204;8.140;2022-11-02T07:39:39;7.60;;;1.13;;
73575;SDS011;61859;49.204;8.140;2022-11-02T07:42:04;4.70;;;0.90;;
73575;SDS011;61859;49.204;8.140;2022-11-02T07:44:31;5.03;;;1.00;;
73575;SDS011;61859;49.204;8.140;2022-11-02T07:46:57;4.20;;;0.90;;
73575;SDS011;61859;49.204;8.140;2022-11-02T07:49:23;4.47;;;1.00;;
73575;SDS011;61859;49.204;8.140;2022-11-02T07:51:48;1.90;;;0.83;;
73575;SDS011;61859;49.204;8.140;2022-11-02T07:54:14;3.07;;;0.83;;
73575;SDS011;61859;49.204;8.140;2022-11-02T07:56:40;2.47;;;1.30;;
73575;SDS011;61859;49.204;8.140;2022-11-02T07:59:05;2.40;;;1.10;;
73575;SDS011;61859;49.204;8.140;2022-11-02T08:01:31;3.07;;;1.13;;
73575;SDS011;61859;49.204;8.140;2022-11-02T08:03:56;3.00;;;1.17;;
73575;SDS011;61859;49.204;8.140;2022-11-02T08:06:22;3.70;;;0.97;;
73575;SDS011;61859;49.204;8.140;2022-11-02T08:08:47;2.57;;;0.60;;
73575;SDS011;61859;49.204;8.140;2022-11-02T08:11:13;3.83;;;1.03;;
73575;SDS011;61859;49.204;8.140;2022-11-02T08:13:38;6.23;;;1.00;;
73575;SDS011;61859;49.204;8.140;2022-11-02T08:16:04;8.73;;;1.17;;
73575;SDS011;61859;49.204;8.140;2022-11-02T08:18:30;2.13;;;1.07;;
73575;SDS011;61859;49.204;8.140;2022-11-02T08:20:58;5.13;;;1.50;;
73575;SDS011;61859;49.204;8.140;2022-11-02T08:23:24;3.80;;;0.90;;
73575;SDS011;61859;49.204;8.140;2022-11-02T08:25:50;4.03;;;0.97;;
73575;SDS011;61859;49.204;8.140;2022-11-02T08:28:19;3.97;;;1.37;;
73575;SDS011;61859;49.204;8.140;2022-11-02T08:30:49;2.23;;;0.77;;
73575;SDS011;61859;49.204;8.140;2022-11-02T08:33:15;2.37;;;1.20;;
73575;SDS011;61859;49.204;8.140;2022-11-02T08:35:44;6.67;;;1.00;;
73575;SDS011;61859;49.204;8.140;2022-11-02T08:38:10;3.73;;;0.93;;
73575;SDS011;61859;49.204;8.140;2022-11-02T08:40:36;7.80;;;1.70;;
73575;SDS011;61859;49.204;8.140;2022-11-02T08:43:03;5.63;;;1.50;;
73575;SDS011;61859;49.204;8.140;2022-11-02T08:45:30;5.73;;;1.67;;
73575;SDS011;61859;49.204;8.140;2022-11-02T08:47:57;5.73;;;1.73;;
73575;SDS011;61859;49.204;8.140;2022-11-02T08:50:23;5.07;;;1.77;;
73575;SDS011;61859;49.204;8.140;2022-11-02T08:52:49;5.10;;;0.90;;
73575;SDS011;61859;49.204;8.140;2022-11-02T08:55:15;5.57;;;1.57;;
73575;SDS011;61859;49.204;8.140;2022-11-02T08:57:44;5.80;;;1.77;;
73575;SDS011;61859;49.204;8.140;2022-11-02T09:00:10;6.33;;;1.53;;
73575;SDS011;61859;49.204;8.140;2022-11-02T09:02:36;3.40;;;2.00;;
73575;SDS011;61859;49.204;8.140;2022-11-02T09:05:02;1.47;;;0.67;;
73575;SDS011;61859;49.204;8.140;2022-11-02T09:07:27;6.23;;;1.33;;
73575;SDS011;61859;49.204;8.140;2022-11-02T09:09:53;4.87;;;1.30;;
73575;SDS011;61859;49.204;8.140;2022-11-02T09:12:18;5.30;;;1.53;;
73575;SDS011;61859;49.204;8.140;2022-11-02T09:14:44;5.70;;;1.40;;
73575;SDS011;61859;49.204;8.140;2022-11-02T09:17:09;3.97;;;0.93;;
73575;SDS011;61859;49.204;8.140;2022-11-02T09:19:35;8.40;;;1.40;;
73575;SDS011;61859;49.204;8.140;2022-11-02T09:22:00;3.40;;;1.17;;
73575;SDS011;61859;49.204;8.140;2022-11-02T09:24:26;0.90;;;0.57;;
73575;SDS011;61859;49.204;8.140;2022-11-02T09:26:52;2.47;;;1.13;;
73575;SDS011;61859;49.204;8.140;2022-11-02T09:29:17;2.90;;;0.93;;
73575;SDS011;61859;49.204;8.140;2022-11-02T09:31:43;5.47;;;1.57;;
73575;SDS011;61859;49.204;8.140;2022-11-02T09:34:08;2.97;;;1.03;;
73575;SDS011;61859;49.204;8.140;2022-11-02T09:36:34;4.03;;;1.17;;
73575;SDS011;61859;49.204;8.140;2022-11-02T09:38:59;5.30;;;1.27;;
73575;SDS011;61859;49.204;8.140;2022-11-02T09:41:32;2.23;;;1.17;;
73575;SDS011;61859;49.204;8.140;2022-11-02T09:44:10;5.33;;;1.90;;
73575;SDS011;61859;49.204;8.140;2022-11-02T09:46:42;2.10;;;0.80;;
73575;SDS011;61859;49.204;8.140;2022-11-02T09:49:10;3.10;;;1.00;;
73575;SDS011;61859;49.204;8.140;2022-11-02T09:51:41;2.10;;;0.70;;
73575;SDS011;61859;49.204;8.140;2022-11-02T09:54:15;4.10;;;0.63;;
73575;SDS011;61859;49.204;8.140;2022-11-02T09:56:59;6.07;;;1.27;;
73575;SDS011;61859;49.204;8.140;2022-11-02T09:59:29;4.20;;;0.90;;
73575;SDS011;61859;49.204;8.140;2022-11-02T10:04:37;2.60;;;0.90;;
73575;SDS011;61859;49.204;8.140;2022-11-02T10:10:22;7.10;;;1.63;;
73575;SDS011;61859;49.204;8.140;2022-11-02T10:15:54;4.23;;;0.83;;
73575;SDS011;61859;49.204;8.140;2022-11-02T10:18:29;2.37;;;0.93;;
73575;SDS011;61859;49.204;8.140;2022-11-02T10:21:04;4.83;;;1.10;;
73575;SDS011;61859;49.204;8.140;2022-11-02T10:23:36;3.40;;;1.23;;
73575;SDS011;61859;49.204;8.140;2022-11-02T10:26:12;2.63;;;1.17;;
73575;SDS011;61859;49.204;8.140;2022-11-02T10:28:44;6.20;;;1.50;;
73575;SDS011;61859;49.204;8.140;2022-11-02T10:31:21;2.53;;;0.80;;
73575;SDS011;61859;49.204;8.140;2022-11-02T10:33:51;5.83;;;1.47;;
73575;SDS011;61859;49.204;8.140;2022-11-02T10:36:24;4.83;;;1.37;;
73575;SDS011;61859;49.204;8.140;2022-11-02T10:44:16;3.80;;;0.97;;
73575;SDS011;61859;49.204;8.140;2022-11-02T10:52:02;5.67;;;1.33;;
73575;SDS011;61859;49.204;8.140;2022-11-02T10:54:29;1.43;;;0.77;;
73575;SDS011;61859;49.204;8.140;2022-11-02T10:56:55;2.63;;;1.10;;
73575;SDS011;61859;49.204;8.140;2022-11-02T10:59:22;4.17;;;1.47;;
73575;SDS011;61859;49.204;8.140;2022-11-02T11:04:24;3.03;;;1.00;;
73575;SDS011;61859;49.204;8.140;2022-11-02T11:06:51;2.20;;;1.00;;
73575;SDS011;61859;49.204;8.140;2022-11-02T11:09:19;2.93;;;1.63;;
73575;SDS011;61859;49.204;8.140;2022-11-02T11:11:57;2.63;;;1.00;;
73575;SDS011;61859;49.204;8.140;2022-11-02T11:14:26;2.70;;;1.10;;
73575;SDS011;61859;49.204;8.140;2022-11-02T11:16:54;3.03;;;1.23;;
73575;SDS011;61859;49.204;8.140;2022-11-02T11:21:48;1.83;;;0.80;;
73575;SDS011;61859;49.204;8.140;2022-11-02T11:24:33;0.83;;;0.80;;
73575;SDS011;61859;49.204;8.140;2022-11-02T11:27:03;3.67;;;0.73;;
73575;SDS011;61859;49.204;8.140;2022-11-02T11:29:37;3.10;;;1.10;;
73575;SDS011;61859;49.204;8.140;2022-11-02T11:32:03;2.80;;;1.13;;
73575;SDS011;61859;49.204;8.140;2022-11-02T11:34:39;4.97;;;1.40;;
73575;SDS011;61859;49.204;8.140;2022-11-02T11:37:08;4.50;;;1.00;;
73575;SDS011;61859;49.204;8.140;2022-11-02T11:39:37;2.27;;;0.80;;
73575;SDS011;61859;49.204;8.140;2022-11-02T11:42:04;2.13;;;0.73;;
73575;SDS011;61859;49.204;8.140;2022-11-02T11:44:51;3.77;;;1.27;;
73575;SDS011;61859;49.204;8.140;2022-11-02T11:47:25;5.60;;;0.80;;
73575;SDS011;61859;49.204;8.140;2022-11-02T11:49:54;1.67;;;0.87;;
73575;SDS011;61859;49.204;8.140;2022-11-02T11:52:26;3.13;;;0.90;;
73575;SDS011;61859;49.204;8.140;2022-11-02T11:54:54;1.60;;;0.60;;
73575;SDS011;61859;49.204;8.140;2022-11-02T11:57:43;5.50;;;0.97;;
73575;SDS011;61859;49.204;8.140;2022-11-02T12:00:24;2.57;;;0.90;;
73575;SDS011;61859;49.204;8.140;2022-11-02T12:03:07;5.13;;;1.10;;
73575;SDS011;61859;49.204;8.140;2022-11-02T12:05:47;3.97;;;1.25;;
73575;SDS011;61859;49.204;8.140;2022-11-02T12:22:17;5.55;;;0.90;;
73575;SDS011;61859;49.204;8.140;2022-11-02T12:32:50;3.07;;;1.00;;
73575;SDS011;61859;49.204;8.140;2022-11-02T12:41:16;1.97;;;0.73;;
73575;SDS011;61859;49.204;8.140;2022-11-02T12:44:29;2.03;;;0.90;;
73575;SDS011;61859;49.204;8.140;2022-11-02T12:49:46;6.27;;;1.10;;
73575;SDS011;61859;49.204;8.140;2022-11-02T12:55:02;4.73;;;1.20;;
73575;SDS011;61859;49.204;8.140;2022-11-02T12:57:33;5.10;;;0.63;;
73575;SDS011;61859;49.204;8.140;2022-11-02T13:00:20;1.37;;;0.90;;
73575;SDS011;61859;49.204;8.140;2022-11-02T13:05:36;3.47;;;1.23;;
73575;SDS011;61859;49.204;8.140;2022-11-02T13:08:15;2.30;;;0.90;;
73575;SDS011;61859;49.204;8.140;2022-11-02T13:10:55;3.63;;;1.10;;
73575;SDS011;61859;49.204;8.140;2022-11-02T13:13:26;4.47;;;1.00;;
73575;SDS011;61859;49.204;8.140;2022-11-02T13:15:58;2.27;;;0.93;;
73575;SDS011;61859;49.204;8.140;2022-11-02T13:18:27;1.63;;;0.53;;
73575;SDS011;61859;49.204;8.140;2022-11-02T13:20:57;3.27;;;0.93;;
73575;SDS011;61859;49.204;8.140;2022-11-02T13:26:23;1.80;;;1.20;;
73575;SDS011;61859;49.204;8.140;2022-11-02T13:31:45;2.20;;;1.00;;
73575;SDS011;61859;49.204;8.140;2022-11-02T13:34:21;1.17;;;0.70;;
73575;SDS011;61859;49.204;8.140;2022-11-02T13:36:57;3.40;;;1.13;;
73575;SDS011;61859;49.204;8.140;2022-11-02T13:39:30;3.40;;;1.20;;
73575;SDS011;61859;49.204;8.140;2022-11-02T13:42:10;3.57;;;1.10;;
73575;SDS011;61859;49.204;8.140;2022-11-02T13:50:30;2.43;;;1.30;;
73575;SDS011;61859;49.204;8.140;2022-11-02T13:53:02;2.30;;;1.17;;
73575;SDS011;61859;49.204;8.140;2022-11-02T13:55:42;3.27;;;1.13;;
73575;SDS011;61859;49.204;8.140;2022-11-02T13:58:18;3.23;;;1.10;;
73575;SDS011;61859;49.204;8.140;2022-11-02T14:01:05;3.63;;;1.00;;
73575;SDS011;61859;49.204;8.140;2022-11-02T14:06:15;4.67;;;1.17;;
73575;SDS011;61859;49.204;8.140;2022-11-02T14:08:46;4.37;;;1.07;;
73575;SDS011;61859;49.204;8.140;2022-11-02T14:21:41;1.17;;;0.73;;
73575;SDS011;61859;49.204;8.140;2022-11-02T14:27:43;2.17;;;0.93;;
73575;SDS011;61859;49.204;8.140;2022-11-02T14:48:50;3.80;;;1.33;;
73575;SDS011;61859;49.204;8.140;2022-11-02T14:51:31;2.00;;;0.90;;
73575;SDS011;61859;49.204;8.140;2022-11-02T14:54:01;4.83;;;1.00;;
73575;SDS011;61859;49.204;8.140;2022-11-02T14:57:21;3.73;;;0.87;;
73575;SDS011;61859;49.204;8.140;2022-11-02T14:59:34;1.60;;;0.60;;
73575;SDS011;61859;49.204;8.140;2022-11-02T15:02:11;1.40;;;1.03;;
73575;SDS011;61859;49.204;8.140;2022-11-02T15:04:49;3.27;;;1.03;;
73575;SDS011;61859;49.204;8.140;2022-11-02T15:12:39;2.37;;;1.00;;
73575;SDS011;61859;49.204;8.140;2022-11-02T15:20:30;4.57;;;1.10;;
73575;SDS011;61859;49.204;8.140;2022-11-02T15:23:04;6.50;;;1.00;;
73575;SDS011;61859;49.204;8.140;2022-11-02T15:25:48;5.47;;;1.40;;
73575;SDS011;61859;49.204;8.140;2022-11-02T15:28:18;2.00;;;1.20;;
73575;SDS011;61859;49.204;8.140;2022-11-02T15:30:50;3.67;;;0.97;;
73575;SDS011;61859;49.204;8.140;2022-11-02T15:36:03;4.50;;;1.30;;
73575;SDS011;61859;49.204;8.140;2022-11-02T15:38:32;4.33;;;1.40;;
73575;SDS011;61859;49.204;8.140;2022-11-02T15:48:56;2.47;;;1.10;;
73575;SDS011;61859;49.204;8.140;2022-11-02T15:52:03;4.00;;;1.30;;
73575;SDS011;61859;49.204;8.140;2022-11-02T15:54:50;2.50;;;1.10;;
73575;SDS011;61859;49.204;8.140;2022-11-02T16:00:13;2.10;;;1.20;;
73575;SDS011;61859;49.204;8.140;2022-11-02T16:02:50;3.87;;;1.23;;
73575;SDS011;61859;49.204;8.140;2022-11-02T16:05:23;3.43;;;2.00;;
73575;SDS011;61859;49.204;8.140;2022-11-02T16:07:52;4.90;;;2.07;;
73575;SDS011;61859;49.204;8.140;2022-11-02T16:10:29;3.43;;;2.00;;
73575;SDS011;61859;49.204;8.140;2022-11-02T16:13:12;4.40;;;2.30;;
73575;SDS011;61859;49.204;8.140;2022-11-02T16:15:41;3.90;;;1.60;;
73575;SDS011;61859;49.204;8.140;2022-11-02T16:21:08;3.40;;;1.90;;
73575;SDS011;61859;49.204;8.140;2022-11-02T16:23:37;4.00;;;2.43;;
73575;SDS011;61859;49.204;8.140;2022-11-02T16:26:13;7.93;;;3.50;;
73575;SDS011;61859;49.204;8.140;2022-11-02T16:28:46;7.93;;;4.00;;
73575;SDS011;61859;49.204;8.140;2022-11-02T16:33:48;13.70;;;5.00;;
73575;SDS011;61859;49.204;8.140;2022-11-02T16:36:19;12.53;;;6.03;;
73575;SDS011;61859;49.204;8.140;2022-11-02T16:38:50;15.57;;;6.67;;
73575;SDS011;61859;49.204;8.140;2022-11-02T16:41:16;14.93;;;6.33;;
73575;SDS011;61859;49.204;8.140;2022-11-02T16:43:43;16.60;;;7.20;;
73575;SDS011;61859;49.204;8.140;2022-11-02T16:46:10;15.60;;;6.20;;
73575;SDS011;61859;49.204;8.140;2022-11-02T16:48:39;12.57;;;5.83;;
73575;SDS011;61859;49.204;8.140;2022-11-02T16:51:27;6.93;;;4.23;;
73575;SDS011;61859;49.204;8.140;2022-11-02T16:53:54;11.33;;;4.50;;
73575;SDS011;61859;49.204;8.140;2022-11-02T16:59:04;11.13;;;5.47;;
73575;SDS011;61859;49.204;8.140;2022-11-02T17:01:36;10.40;;;5.90;;
73575;SDS011;61859;49.204;8.140;2022-11-02T17:06:45;8.87;;;4.20;;
73575;SDS011;61859;49.204;8.140;2022-11-02T17:09:26;12.63;;;4.37;;
73575;SDS011;61859;49.204;8.140;2022-11-02T17:11:55;6.47;;;4.10;;
73575;SDS011;61859;49.204;8.140;2022-11-02T17:14:29;7.53;;;3.63;;
73575;SDS011;61859;49.204;8.140;2022-11-02T17:22:37;9.83;;;4.30;;
73575;SDS011;61859;49.204;8.140;2022-11-02T17:25:18;9.83;;;3.87;;
73575;SDS011;61859;49.204;8.140;2022-11-02T17:27:52;8.10;;;4.43;;
73575;SDS011;61859;49.204;8.140;2022-11-02T17:35:32;11.27;;;4.67;;
73575;SDS011;61859;49.204;8.140;2022-11-02T17:37:58;20.13;;;7.40;;
73575;SDS011;61859;49.204;8.140;2022-11-02T17:40:23;20.13;;;7.67;;
73575;SDS011;61859;49.204;8.140;2022-11-02T17:42:49;27.80;;;9.80;;
73575;SDS011;61859;49.204;8.140;2022-11-02T17:45:28;17.83;;;7.97;;
73575;SDS011;61859;49.204;8.140;2022-11-02T17:47:58;17.23;;;6.80;;
73575;SDS011;61859;49.204;8.140;2022-11-02T17:50:25;16.57;;;7.00;;
73575;SDS011;61859;49.204;8.140;2022-11-02T17:52:53;13.23;;;6.13;;
73575;SDS011;61859;49.204;8.140;2022-11-02T17:55:20;12.53;;;6.10;;
73575;SDS011;61859;49.204;8.140;2022-11-02T17:57:51;11.27;;;6.27;;
73575;SDS011;61859;49.204;8.140;2022-11-02T18:00:16;9.73;;;5.57;;
73575;SDS011;61859;49.204;8.140;2022-11-02T18:02:52;8.57;;;5.30;;
73575;SDS011;61859;49.204;8.140;2022-11-02T18:05:26;8.00;;;5.20;;
73575;SDS011;61859;49.204;8.140;2022-11-02T18:08:02;11.50;;;5.77;;
73575;SDS011;61859;49.204;8.140;2022-11-02T18:10:30;9.23;;;5.90;;
73575;SDS011;61859;49.204;8.140;2022-11-02T18:12:57;9.70;;;6.37;;